sensor_id;sensor_type;location;lat;lon;timestamp;pressure;altitude;pressure_sealevel;temperature;humidity
77572;BME280;67214;47.454;18.966;2023-03-01T00:01:19;101273.91;;;4.26;62.13
77572;BME280;67214;47.454;18.966;2023-03-01T00:03:43;101284.30;;;4.29;61.63
77572;BME280;67214;47.454;18.966;2023-03-01T00:06:10;101284.87;;;4.25;62.29
77572;BME280;67214;47.454;18.966;2023-03-01T00:08:38;101278.27;;;4.27;61.56
77572;BME280;67214;47.454;18.966;2023-03-01T00:11:09;101282.20;;;4.27;61.37
77572;BME280;67214;47.454;18.966;2023-03-01T00:13:37;101280.89;;;4.27;61.37
77572;BME280;67214;47.454;18.966;2023-03-01T00:16:11;101277.28;;;4.29;60.84
77572;BME280;67214;47.454;18.966;2023-03-01T00:18:34;101281.88;;;4.36;60.80
77572;BME280;67214;47.454;18.966;2023-03-01T00:21:01;101277.07;;;4.35;60.84
77572;BME280;67214;47.454;18.966;2023-03-01T00:23:29;101288.72;;;4.40;60.42
77572;BME280;67214;47.454;18.966;2023-03-01T00:25:57;101290.13;;;4.37;60.57
77572;BME280;67214;47.454;18.966;2023-03-01T00:28:24;101285.69;;;4.39;60.87
77572;BME280;67214;47.454;18.966;2023-03-01T00:30:52;101291.34;;;4.40;61.38
77572;BME280;67214;47.454;18.966;2023-03-01T00:33:19;101287.91;;;4.38;61.31
77572;BME280;67214;47.454;18.966;2023-03-01T00:35:47;101292.38;;;4.36;60.75
77572;BME280;67214;47.454;18.966;2023-03-01T00:38:14;101292.13;;;4.42;60.40
77572;BME280;67214;47.454;18.966;2023-03-01T00:40:42;101290.08;;;4.38;60.60
77572;BME280;67214;47.454;18.966;2023-03-01T00:43:10;101296.07;;;4.42;60.77
77572;BME280;67214;47.454;18.966;2023-03-01T00:45:37;101286.59;;;4.38;61.34
77572;BME280;67214;47.454;18.966;2023-03-01T00:48:05;101293.98;;;4.40;60.89
77572;BME280;67214;47.454;18.966;2023-03-01T00:50:32;101283.06;;;4.39;61.24
77572;BME280;67214;47.454;18.966;2023-03-01T00:53:00;101294.27;;;4.44;60.58
77572;BME280;67214;47.454;18.966;2023-03-01T00:55:27;101291.39;;;4.38;60.47
77572;BME280;67214;47.454;18.966;2023-03-01T00:57:55;101289.67;;;4.37;60.65
77572;BME280;67214;47.454;18.966;2023-03-01T01:00:22;101282.04;;;4.31;60.97
77572;BME280;67214;47.454;18.966;2023-03-01T01:02:50;101279.91;;;4.29;60.96
77572;BME280;67214;47.454;18.966;2023-03-01T01:05:19;101284.59;;;4.33;60.69
77572;BME280;67214;47.454;18.966;2023-03-01T01:07:47;101281.51;;;4.33;60.35
77572;BME280;67214;47.454;18.966;2023-03-01T01:10:15;101281.67;;;4.29;61.28
77572;BME280;67214;47.454;18.966;2023-03-01T01:12:45;101277.41;;;4.38;61.00
77572;BME280;67214;47.454;18.966;2023-03-01T01:15:13;101266.85;;;4.39;61.42
77572;BME280;67214;47.454;18.966;2023-03-01T01:17:42;101256.80;;;4.39;61.02
77572;BME280;67214;47.454;18.966;2023-03-01T01:20:10;101256.92;;;4.36;61.55
77572;BME280;67214;47.454;18.966;2023-03-01T01:22:38;101243.22;;;4.39;62.31
77572;BME280;67214;47.454;18.966;2023-03-01T01:25:06;101250.00;;;4.33;61.13
77572;BME280;67214;47.454;18.966;2023-03-01T01:27:33;101262.39;;;4.30;61.58
77572;BME280;67214;47.454;18.966;2023-03-01T01:30:01;101255.78;;;4.31;61.21
77572;BME280;67214;47.454;18.966;2023-03-01T01:32:28;101257.47;;;4.32;61.18
77572;BME280;67214;47.454;18.966;2023-03-01T01:34:56;101245.48;;;4.37;61.24
77572;BME280;67214;47.454;18.966;2023-03-01T01:37:23;101246.92;;;4.34;61.15
77572;BME280;67214;47.454;18.966;2023-03-01T01:39:52;101239.05;;;4.34;61.96
77572;BME280;67214;47.454;18.966;2023-03-01T01:42:20;101243.03;;;4.32;61.49
77572;BME280;67214;47.454;18.966;2023-03-01T01:44:48;101240.81;;;4.33;61.38
77572;BME280;67214;47.454;18.966;2023-03-01T01:47:18;101233.67;;;4.25;61.74
77572;BME280;67214;47.454;18.966;2023-03-01T01:49:53;101230.31;;;4.21;61.84
77572;BME280;67214;47.454;18.966;2023-03-01T01:52:30;101218.17;;;4.19;62.27
77572;BME280;67214;47.454;18.966;2023-03-01T01:57:41;101218.84;;;4.36;61.44
77572;BME280;67214;47.454;18.966;2023-03-01T02:00:08;101222.09;;;4.31;61.52
77572;BME280;67214;47.454;18.966;2023-03-01T02:02:36;101222.14;;;4.29;61.97
77572;BME280;67214;47.454;18.966;2023-03-01T02:05:14;101213.58;;;4.24;61.67
77572;BME280;67214;47.454;18.966;2023-03-01T02:07:40;101214.11;;;4.22;62.11
77572;BME280;67214;47.454;18.966;2023-03-01T02:10:10;101214.23;;;4.19;61.96
77572;BME280;67214;47.454;18.966;2023-03-01T02:12:39;101209.88;;;4.18;62.21
77572;BME280;67214;47.454;18.966;2023-03-01T02:15:08;101212.96;;;4.17;62.47
77572;BME280;67214;47.454;18.966;2023-03-01T02:17:36;101216.28;;;4.23;62.08
77572;BME280;67214;47.454;18.966;2023-03-01T02:20:21;101212.80;;;4.22;62.11
77572;BME280;67214;47.454;18.966;2023-03-01T02:22:45;101213.48;;;4.27;62.08
77572;BME280;67214;47.454;18.966;2023-03-01T02:30:48;101207.22;;;4.19;62.77
77572;BME280;67214;47.454;18.966;2023-03-01T02:33:36;101201.14;;;4.17;62.52
77572;BME280;67214;47.454;18.966;2023-03-01T02:36:14;101200.86;;;4.13;62.71
77572;BME280;67214;47.454;18.966;2023-03-01T02:38:40;101204.02;;;4.11;62.88
77572;BME280;67214;47.454;18.966;2023-03-01T02:41:08;101208.62;;;4.16;62.93
77572;BME280;67214;47.454;18.966;2023-03-01T02:43:38;101200.08;;;4.11;62.91
77572;BME280;67214;47.454;18.966;2023-03-01T02:46:08;101195.33;;;4.09;63.19
77572;BME280;67214;47.454;18.966;2023-03-01T02:48:48;101200.13;;;4.10;63.50
77572;BME280;67214;47.454;18.966;2023-03-01T02:54:28;101192.30;;;4.08;64.34
77572;BME280;67214;47.454;18.966;2023-03-01T02:56:56;101191.44;;;4.08;63.86
77572;BME280;67214;47.454;18.966;2023-03-01T02:59:27;101190.25;;;4.05;63.72
77572;BME280;67214;47.454;18.966;2023-03-01T03:01:55;101191.80;;;4.10;63.50
77572;BME280;67214;47.454;18.966;2023-03-01T03:04:22;101182.83;;;4.04;63.72
77572;BME280;67214;47.454;18.966;2023-03-01T03:06:51;101190.70;;;4.04;63.74
77572;BME280;67214;47.454;18.966;2023-03-01T03:09:19;101182.50;;;4.02;63.71
77572;BME280;67214;47.454;18.966;2023-03-01T03:11:46;101174.09;;;4.04;63.98
77572;BME280;67214;47.454;18.966;2023-03-01T03:14:15;101182.37;;;4.05;63.89
77572;BME280;67214;47.454;18.966;2023-03-01T03:16:45;101186.31;;;4.05;64.07
77572;BME280;67214;47.454;18.966;2023-03-01T03:19:14;101176.63;;;4.07;64.37
77572;BME280;67214;47.454;18.966;2023-03-01T03:21:43;101178.22;;;4.11;64.58
77572;BME280;67214;47.454;18.966;2023-03-01T03:24:10;101178.67;;;4.10;64.41
77572;BME280;67214;47.454;18.966;2023-03-01T03:26:38;101171.94;;;4.15;64.18
77572;BME280;67214;47.454;18.966;2023-03-01T03:29:05;101162.80;;;4.13;63.89
77572;BME280;67214;47.454;18.966;2023-03-01T03:31:34;101164.11;;;4.13;64.39
77572;BME280;67214;47.454;18.966;2023-03-01T03:34:03;101162.02;;;4.11;64.09
77572;BME280;67214;47.454;18.966;2023-03-01T03:36:30;101156.36;;;4.10;64.54
77572;BME280;67214;47.454;18.966;2023-03-01T03:38:58;101166.50;;;4.08;64.83
77572;BME280;67214;47.454;18.966;2023-03-01T03:41:25;101173.59;;;4.06;64.57
77572;BME280;67214;47.454;18.966;2023-03-01T03:43:53;101173.19;;;4.05;64.75
77572;BME280;67214;47.454;18.966;2023-03-01T03:46:20;101166.17;;;4.05;65.46
77572;BME280;67214;47.454;18.966;2023-03-01T03:48:48;101176.38;;;4.01;65.72
77572;BME280;67214;47.454;18.966;2023-03-01T03:51:18;101165.94;;;4.00;65.17
77572;BME280;67214;47.454;18.966;2023-03-01T03:53:46;101171.02;;;4.04;64.26
77572;BME280;67214;47.454;18.966;2023-03-01T03:56:14;101171.47;;;4.04;64.41
77572;BME280;67214;47.454;18.966;2023-03-01T03:58:41;101178.09;;;4.14;64.08
77572;BME280;67214;47.454;18.966;2023-03-01T04:01:09;101175.77;;;4.06;64.38
77572;BME280;67214;47.454;18.966;2023-03-01T04:03:36;101170.56;;;4.05;64.60
77572;BME280;67214;47.454;18.966;2023-03-01T04:06:04;101166.86;;;4.10;64.75
77572;BME280;67214;47.454;18.966;2023-03-01T04:08:32;101166.61;;;4.16;64.51
77572;BME280;67214;47.454;18.966;2023-03-01T04:11:01;101158.41;;;4.14;64.16
77572;BME280;67214;47.454;18.966;2023-03-01T04:13:48;101164.69;;;4.10;64.20
77572;BME280;67214;47.454;18.966;2023-03-01T04:16:15;101162.47;;;4.11;64.39
77572;BME280;67214;47.454;18.966;2023-03-01T04:18:44;101163.09;;;4.06;64.57
77572;BME280;67214;47.454;18.966;2023-03-01T04:21:12;101161.73;;;4.07;64.49
77572;BME280;67214;47.454;18.966;2023-03-01T04:23:40;101163.25;;;4.13;64.29
77572;BME280;67214;47.454;18.966;2023-03-01T04:26:08;101163.05;;;4.07;64.47
77572;BME280;67214;47.454;18.966;2023-03-01T04:28:38;101165.31;;;4.05;64.65
77572;BME280;67214;47.454;18.966;2023-03-01T04:31:10;101163.42;;;4.08;64.46
77572;BME280;67214;47.454;18.966;2023-03-01T04:33:44;101170.16;;;4.04;64.63
77572;BME280;67214;47.454;18.966;2023-03-01T04:36:13;101167.94;;;4.05;64.43
77572;BME280;67214;47.454;18.966;2023-03-01T04:38:41;101172.23;;;4.07;63.73
77572;BME280;67214;47.454;18.966;2023-03-01T04:41:12;101169.78;;;4.03;63.57
77572;BME280;67214;47.454;18.966;2023-03-01T04:43:40;101170.44;;;4.08;63.04
77572;BME280;67214;47.454;18.966;2023-03-01T04:46:11;101165.71;;;4.17;62.43
77572;BME280;67214;47.454;18.966;2023-03-01T04:48:40;101161.45;;;4.15;62.62
77572;BME280;67214;47.454;18.966;2023-03-01T04:51:08;101164.28;;;4.09;62.47
77572;BME280;67214;47.454;18.966;2023-03-01T04:53:36;101162.56;;;4.08;62.79
77572;BME280;67214;47.454;18.966;2023-03-01T04:56:03;101146.47;;;4.17;62.29
77572;BME280;67214;47.454;18.966;2023-03-01T04:58:31;101153.33;;;4.09;62.42
77572;BME280;67214;47.454;18.966;2023-03-01T05:00:59;101149.39;;;4.09;62.75
77572;BME280;67214;47.454;18.966;2023-03-01T05:03:26;101153.91;;;4.06;63.14
77572;BME280;67214;47.454;18.966;2023-03-01T05:05:58;101152.06;;;4.08;63.09
77572;BME280;67214;47.454;18.966;2023-03-01T05:08:26;101158.75;;;4.05;63.06
77572;BME280;67214;47.454;18.966;2023-03-01T05:10:53;101159.03;;;4.09;62.90
77572;BME280;67214;47.454;18.966;2023-03-01T05:13:21;101158.54;;;4.11;63.06
77572;BME280;67214;47.454;18.966;2023-03-01T05:16:00;101173.42;;;4.10;63.12
77572;BME280;67214;47.454;18.966;2023-03-01T05:18:31;101166.05;;;4.08;63.49
77572;BME280;67214;47.454;18.966;2023-03-01T05:21:04;101168.67;;;4.08;63.79
77572;BME280;67214;47.454;18.966;2023-03-01T05:23:34;101166.98;;;4.07;63.62
77572;BME280;67214;47.454;18.966;2023-03-01T05:26:04;101166.33;;;4.12;63.19
77572;BME280;67214;47.454;18.966;2023-03-01T05:28:32;101171.70;;;4.09;63.66
77572;BME280;67214;47.454;18.966;2023-03-01T05:31:02;101168.05;;;4.13;63.44
77572;BME280;67214;47.454;18.966;2023-03-01T05:33:31;101173.88;;;4.10;63.53
77572;BME280;67214;47.454;18.966;2023-03-01T05:36:00;101174.11;;;4.15;63.32
77572;BME280;67214;47.454;18.966;2023-03-01T05:38:27;101173.26;;;4.15;63.48
77572;BME280;67214;47.454;18.966;2023-03-01T05:40:55;101166.33;;;4.12;63.59
77572;BME280;67214;47.454;18.966;2023-03-01T05:43:22;101164.52;;;4.14;63.73
77572;BME280;67214;47.454;18.966;2023-03-01T05:45:50;101165.37;;;4.15;63.53
77572;BME280;67214;47.454;18.966;2023-03-01T05:48:18;101156.64;;;4.14;63.58
77572;BME280;67214;47.454;18.966;2023-03-01T05:50:46;101159.59;;;4.17;63.74
77572;BME280;67214;47.454;18.966;2023-03-01T05:53:16;101159.47;;;4.20;63.55
77572;BME280;67214;47.454;18.966;2023-03-01T05:55:45;101163.95;;;4.18;63.84
77572;BME280;67214;47.454;18.966;2023-03-01T05:58:20;101166.98;;;4.19;63.68
77572;BME280;67214;47.454;18.966;2023-03-01T06:00:46;101165.25;;;4.18;63.85
77572;BME280;67214;47.454;18.966;2023-03-01T06:03:15;101171.69;;;4.21;63.88
77572;BME280;67214;47.454;18.966;2023-03-01T06:05:44;101175.99;;;4.24;63.58
77572;BME280;67214;47.454;18.966;2023-03-01T06:08:12;101168.39;;;4.28;63.44
77572;BME280;67214;47.454;18.966;2023-03-01T06:10:40;101176.65;;;4.29;63.42
77572;BME280;67214;47.454;18.966;2023-03-01T06:13:08;101164.94;;;4.37;62.97
77572;BME280;67214;47.454;18.966;2023-03-01T06:15:35;101165.84;;;4.36;63.03
77572;BME280;67214;47.454;18.966;2023-03-01T06:18:03;101175.72;;;4.41;62.95
77572;BME280;67214;47.454;18.966;2023-03-01T06:20:30;101180.29;;;4.36;63.43
77572;BME280;67214;47.454;18.966;2023-03-01T06:22:57;101178.88;;;4.39;63.26
77572;BME280;67214;47.454;18.966;2023-03-01T06:25:27;101164.63;;;4.45;62.93
77572;BME280;67214;47.454;18.966;2023-03-01T06:27:55;101182.69;;;4.42;62.97
77572;BME280;67214;47.454;18.966;2023-03-01T06:30:24;101182.64;;;4.44;63.04
77572;BME280;67214;47.454;18.966;2023-03-01T06:32:52;101175.14;;;4.45;63.30
77572;BME280;67214;47.454;18.966;2023-03-01T06:35:22;101182.34;;;4.51;63.25
77572;BME280;67214;47.454;18.966;2023-03-01T06:37:49;101187.29;;;4.59;62.69
77572;BME280;67214;47.454;18.966;2023-03-01T06:40:17;101187.69;;;4.60;62.71
77572;BME280;67214;47.454;18.966;2023-03-01T06:42:50;101200.66;;;4.64;62.75
77572;BME280;67214;47.454;18.966;2023-03-01T06:45:19;101204.59;;;4.64;62.71
77572;BME280;67214;47.454;18.966;2023-03-01T06:47:47;101202.52;;;4.73;62.34
77572;BME280;67214;47.454;18.966;2023-03-01T06:50:16;101203.34;;;4.73;62.88
77572;BME280;67214;47.454;18.966;2023-03-01T06:52:44;101202.84;;;4.75;62.39
77572;BME280;67214;47.454;18.966;2023-03-01T06:55:13;101199.63;;;4.79;62.32
77572;BME280;67214;47.454;18.966;2023-03-01T06:57:40;101197.64;;;4.74;62.07
77572;BME280;67214;47.454;18.966;2023-03-01T07:00:09;101197.99;;;4.76;61.94
77572;BME280;67214;47.454;18.966;2023-03-01T07:02:36;101191.97;;;4.84;61.75
77572;BME280;67214;47.454;18.966;2023-03-01T07:05:04;101195.23;;;4.89;61.48
77572;BME280;67214;47.454;18.966;2023-03-01T07:07:31;101199.67;;;4.89;61.54
77572;BME280;67214;47.454;18.966;2023-03-01T07:10:00;101197.50;;;4.88;61.83
77572;BME280;67214;47.454;18.966;2023-03-01T07:12:28;101200.17;;;4.87;61.51
77572;BME280;67214;47.454;18.966;2023-03-01T07:14:55;101205.20;;;5.03;61.16
77572;BME280;67214;47.454;18.966;2023-03-01T07:17:23;101202.31;;;4.99;61.23
77572;BME280;67214;47.454;18.966;2023-03-01T07:19:50;101189.89;;;5.02;61.19
77572;BME280;67214;47.454;18.966;2023-03-01T07:22:17;101195.09;;;5.14;61.48
77572;BME280;67214;47.454;18.966;2023-03-01T07:24:45;101196.76;;;5.27;61.01
77572;BME280;67214;47.454;18.966;2023-03-01T07:27:12;101200.53;;;5.41;60.03
77572;BME280;67214;47.454;18.966;2023-03-01T07:29:40;101194.29;;;5.54;59.68
77572;BME280;67214;47.454;18.966;2023-03-01T07:32:07;101195.66;;;5.52;59.58
77572;BME280;67214;47.454;18.966;2023-03-01T07:34:35;101191.11;;;5.56;59.28
77572;BME280;67214;47.454;18.966;2023-03-01T07:37:02;101197.23;;;5.56;59.16
77572;BME280;67214;47.454;18.966;2023-03-01T07:39:30;101201.77;;;5.73;58.61
77572;BME280;67214;47.454;18.966;2023-03-01T07:41:58;101187.95;;;5.78;58.82
77572;BME280;67214;47.454;18.966;2023-03-01T07:44:25;101200.11;;;5.81;58.51
77572;BME280;67214;47.454;18.966;2023-03-01T07:46:54;101194.53;;;5.88;58.90
77572;BME280;67214;47.454;18.966;2023-03-01T07:49:23;101189.12;;;6.01;58.43
77572;BME280;67214;47.454;18.966;2023-03-01T07:51:53;101189.73;;;6.17;58.08
77572;BME280;67214;47.454;18.966;2023-03-01T07:54:20;101183.80;;;6.22;57.12
77572;BME280;67214;47.454;18.966;2023-03-01T07:56:48;101184.86;;;6.18;57.07
77572;BME280;67214;47.454;18.966;2023-03-01T07:59:15;101180.24;;;6.23;56.84
77572;BME280;67214;47.454;18.966;2023-03-01T08:01:44;101176.05;;;6.19;56.84
77572;BME280;67214;47.454;18.966;2023-03-01T08:04:12;101177.70;;;6.30;57.03
77572;BME280;67214;47.454;18.966;2023-03-01T08:06:39;101177.20;;;6.40;55.87
77572;BME280;67214;47.454;18.966;2023-03-01T08:09:06;101183.02;;;6.38;56.32
77572;BME280;67214;47.454;18.966;2023-03-01T08:11:34;101180.02;;;6.46;55.79
77572;BME280;67214;47.454;18.966;2023-03-01T08:14:02;101186.14;;;6.46;56.42
77572;BME280;67214;47.454;18.966;2023-03-01T08:16:30;101186.20;;;6.45;55.85
77572;BME280;67214;47.454;18.966;2023-03-01T08:19:04;101170.33;;;6.46;55.98
77572;BME280;67214;47.454;18.966;2023-03-01T08:21:29;101176.55;;;6.54;55.62
77572;BME280;67214;47.454;18.966;2023-03-01T08:23:56;101173.64;;;6.60;55.21
77572;BME280;67214;47.454;18.966;2023-03-01T08:26:24;101177.77;;;6.74;55.19
77572;BME280;67214;47.454;18.966;2023-03-01T08:28:52;101172.08;;;6.92;54.39
77572;BME280;67214;47.454;18.966;2023-03-01T08:31:34;101170.29;;;7.10;53.64
77572;BME280;67214;47.454;18.966;2023-03-01T08:34:00;101172.70;;;7.14;54.07
77572;BME280;67214;47.454;18.966;2023-03-01T08:36:30;101154.23;;;7.23;53.99
77572;BME280;67214;47.454;18.966;2023-03-01T08:38:58;101150.91;;;7.28;54.06
77572;BME280;67214;47.454;18.966;2023-03-01T08:41:26;101142.53;;;7.37;53.94
77572;BME280;67214;47.454;18.966;2023-03-01T08:43:54;101151.90;;;7.42;53.00
77572;BME280;67214;47.454;18.966;2023-03-01T08:46:23;101160.04;;;7.46;53.72
77572;BME280;67214;47.454;18.966;2023-03-01T08:48:50;101158.13;;;7.41;53.78
77572;BME280;67214;47.454;18.966;2023-03-01T08:51:19;101160.54;;;7.37;53.35
77572;BME280;67214;47.454;18.966;2023-03-01T08:53:47;101151.44;;;7.43;53.67
77572;BME280;67214;47.454;18.966;2023-03-01T08:56:16;101146.22;;;7.50;53.73
77572;BME280;67214;47.454;18.966;2023-03-01T08:58:46;101144.83;;;7.52;52.99
77572;BME280;67214;47.454;18.966;2023-03-01T09:01:16;101133.47;;;7.58;53.14
77572;BME280;67214;47.454;18.966;2023-03-01T09:03:44;101131.28;;;7.66;52.06
77572;BME280;67214;47.454;18.966;2023-03-01T09:06:13;101132.34;;;7.79;52.87
77572;BME280;67214;47.454;18.966;2023-03-01T09:08:46;101134.72;;;7.92;52.12
77572;BME280;67214;47.454;18.966;2023-03-01T09:11:14;101139.92;;;7.94;52.51
77572;BME280;67214;47.454;18.966;2023-03-01T09:13:43;101128.33;;;7.97;52.59
77572;BME280;67214;47.454;18.966;2023-03-01T09:16:13;101127.19;;;7.93;51.97
77572;BME280;67214;47.454;18.966;2023-03-01T09:18:41;101123.73;;;8.00;51.58
77572;BME280;67214;47.454;18.966;2023-03-01T09:21:12;101123.70;;;8.09;52.33
77572;BME280;67214;47.454;18.966;2023-03-01T09:23:41;101119.09;;;8.36;51.77
77572;BME280;67214;47.454;18.966;2023-03-01T09:26:12;101116.48;;;8.59;51.30
77572;BME280;67214;47.454;18.966;2023-03-01T09:28:40;101095.17;;;8.69;51.00
77572;BME280;67214;47.454;18.966;2023-03-01T09:31:08;101107.30;;;8.80;49.52
77572;BME280;67214;47.454;18.966;2023-03-01T09:33:37;101103.27;;;8.89;49.67
77572;BME280;67214;47.454;18.966;2023-03-01T09:36:06;101091.81;;;8.81;50.90
77572;BME280;67214;47.454;18.966;2023-03-01T09:38:34;101103.83;;;8.80;50.82
77572;BME280;67214;47.454;18.966;2023-03-01T09:41:02;101079.73;;;8.84;49.97
77572;BME280;67214;47.454;18.966;2023-03-01T09:46:11;101077.88;;;9.01;50.89
77572;BME280;67214;47.454;18.966;2023-03-01T09:48:49;101072.17;;;9.22;50.18
77572;BME280;67214;47.454;18.966;2023-03-01T09:51:32;101066.06;;;9.57;49.49
77572;BME280;67214;47.454;18.966;2023-03-01T09:54:02;101072.55;;;9.87;48.78
77572;BME280;67214;47.454;18.966;2023-03-01T10:02:21;101066.33;;;9.81;48.11
77572;BME280;67214;47.454;18.966;2023-03-01T10:04:47;101068.77;;;9.70;48.69
77572;BME280;67214;47.454;18.966;2023-03-01T10:10:01;101071.63;;;9.81;47.92
77572;BME280;67214;47.454;18.966;2023-03-01T10:12:37;101064.13;;;10.02;48.17
77572;BME280;67214;47.454;18.966;2023-03-01T10:15:16;101056.64;;;10.01;48.07
77572;BME280;67214;47.454;18.966;2023-03-01T10:20:22;101054.08;;;10.00;48.07
77572;BME280;67214;47.454;18.966;2023-03-01T10:22:51;101056.48;;;10.31;47.82
77572;BME280;67214;47.454;18.966;2023-03-01T10:25:47;101045.26;;;10.20;47.59
77572;BME280;67214;47.454;18.966;2023-03-01T10:28:44;101040.25;;;10.16;47.51
77572;BME280;67214;47.454;18.966;2023-03-01T10:31:18;101049.33;;;10.26;47.63
77572;BME280;67214;47.454;18.966;2023-03-01T10:33:44;101031.17;;;10.06;48.21
77572;BME280;67214;47.454;18.966;2023-03-01T10:36:13;101028.85;;;10.28;47.02
77572;BME280;67214;47.454;18.966;2023-03-01T10:38:53;101035.57;;;10.53;47.40
77572;BME280;67214;47.454;18.966;2023-03-01T10:41:22;101025.81;;;10.73;46.86
77572;BME280;67214;47.454;18.966;2023-03-01T10:43:56;101021.11;;;10.64;46.70
77572;BME280;67214;47.454;18.966;2023-03-01T10:46:35;101022.73;;;10.67;46.82
77572;BME280;67214;47.454;18.966;2023-03-01T10:49:17;101008.01;;;11.26;46.53
77572;BME280;67214;47.454;18.966;2023-03-01T10:51:47;101004.31;;;11.59;45.31
77572;BME280;67214;47.454;18.966;2023-03-01T10:54:17;100988.75;;;11.73;45.10
77572;BME280;67214;47.454;18.966;2023-03-01T10:56:54;100996.41;;;11.83;44.14
77572;BME280;67214;47.454;18.966;2023-03-01T10:59:31;100993.42;;;11.88;44.00
77572;BME280;67214;47.454;18.966;2023-03-01T11:02:27;100976.25;;;12.04;43.51
77572;BME280;67214;47.454;18.966;2023-03-01T11:07:55;100988.21;;;11.86;43.94
77572;BME280;67214;47.454;18.966;2023-03-01T11:10:26;100982.50;;;11.67;44.10
77572;BME280;67214;47.454;18.966;2023-03-01T11:12:51;100987.27;;;11.56;44.48
77572;BME280;67214;47.454;18.966;2023-03-01T11:15:27;100978.27;;;11.64;45.21
77572;BME280;67214;47.454;18.966;2023-03-01T11:17:56;100972.45;;;11.96;44.46
77572;BME280;67214;47.454;18.966;2023-03-01T11:20:35;100971.41;;;12.04;43.76
77572;BME280;67214;47.454;18.966;2023-03-01T11:23:05;100969.36;;;12.02;43.96
77572;BME280;67214;47.454;18.966;2023-03-01T11:25:35;100968.64;;;12.05;43.67
77572;BME280;67214;47.454;18.966;2023-03-01T11:28:05;100965.09;;;11.94;44.38
77572;BME280;67214;47.454;18.966;2023-03-01T11:33:37;100965.57;;;11.99;44.13
77572;BME280;67214;47.454;18.966;2023-03-01T11:38:35;100970.50;;;11.43;45.41
77572;BME280;67214;47.454;18.966;2023-03-01T11:41:30;100958.34;;;11.64;44.35
77572;BME280;67214;47.454;18.966;2023-03-01T11:43:47;100948.64;;;11.27;45.50
77572;BME280;67214;47.454;18.966;2023-03-01T11:46:36;100959.95;;;11.36;45.24
77572;BME280;67214;47.454;18.966;2023-03-01T11:52:18;100949.88;;;11.29;45.51
77572;BME280;67214;47.454;18.966;2023-03-01T11:57:43;100946.81;;;11.40;45.39
77572;BME280;67214;47.454;18.966;2023-03-01T12:08:24;100934.52;;;11.76;44.67
77572;BME280;67214;47.454;18.966;2023-03-01T12:11:25;100932.95;;;11.73;44.84
77572;BME280;67214;47.454;18.966;2023-03-01T12:19:33;100923.36;;;11.52;45.61
77572;BME280;67214;47.454;18.966;2023-03-01T12:27:55;100888.70;;;12.25;44.12
77572;BME280;67214;47.454;18.966;2023-03-01T12:36:14;100889.08;;;13.17;42.74
77572;BME280;67214;47.454;18.966;2023-03-01T12:39:04;100889.59;;;13.16;42.39
77572;BME280;67214;47.454;18.966;2023-03-01T12:47:12;100885.19;;;12.71;42.98
77572;BME280;67214;47.454;18.966;2023-03-01T12:52:19;100877.57;;;12.83;43.00
77572;BME280;67214;47.454;18.966;2023-03-01T12:54:45;100881.56;;;12.83;43.16
77572;BME280;67214;47.454;18.966;2023-03-01T12:57:24;100894.13;;;12.70;43.33
77572;BME280;67214;47.454;18.966;2023-03-01T12:59:59;100882.16;;;12.81;42.64
77572;BME280;67214;47.454;18.966;2023-03-01T13:05:06;100868.97;;;12.74;43.78
77572;BME280;67214;47.454;18.966;2023-03-01T13:07:42;100877.42;;;12.62;42.71
77572;BME280;67214;47.454;18.966;2023-03-01T13:10:28;100875.83;;;12.43;43.42
77572;BME280;67214;47.454;18.966;2023-03-01T13:13:09;100882.61;;;12.47;44.24
77572;BME280;67214;47.454;18.966;2023-03-01T13:15:35;100875.27;;;12.27;44.00
77572;BME280;67214;47.454;18.966;2023-03-01T13:20:56;100859.78;;;13.17;42.75
77572;BME280;67214;47.454;18.966;2023-03-01T13:23:28;100869.68;;;13.37;42.59
77572;BME280;67214;47.454;18.966;2023-03-01T13:26:08;100851.83;;;14.44;40.26
77572;BME280;67214;47.454;18.966;2023-03-01T13:28:39;100838.03;;;16.22;37.52
77572;BME280;67214;47.454;18.966;2023-03-01T13:34:01;100835.41;;;20.07;31.02
77572;BME280;67214;47.454;18.966;2023-03-01T13:39:05;100820.53;;;22.07;28.20
77572;BME280;67214;47.454;18.966;2023-03-01T13:46:44;100801.91;;;22.49;27.15
77572;BME280;67214;47.454;18.966;2023-03-01T13:49:19;100805.34;;;22.06;27.49
77572;BME280;67214;47.454;18.966;2023-03-01T13:51:51;100805.64;;;21.92;27.87
77572;BME280;67214;47.454;18.966;2023-03-01T13:54:24;100804.62;;;22.12;27.53
77572;BME280;67214;47.454;18.966;2023-03-01T13:56:47;100796.45;;;21.97;27.69
77572;BME280;67214;47.454;18.966;2023-03-01T13:59:17;100797.31;;;22.83;26.68
77572;BME280;67214;47.454;18.966;2023-03-01T14:01:54;100799.43;;;22.77;26.93
77572;BME280;67214;47.454;18.966;2023-03-01T14:04:24;100800.90;;;23.34;25.85
77572;BME280;67214;47.454;18.966;2023-03-01T14:07:11;100786.78;;;22.88;26.51
77572;BME280;67214;47.454;18.966;2023-03-01T14:09:40;100787.73;;;23.46;25.69
77572;BME280;67214;47.454;18.966;2023-03-01T14:12:34;100785.22;;;22.60;27.24
77572;BME280;67214;47.454;18.966;2023-03-01T14:15:10;100777.66;;;21.31;28.57
77572;BME280;67214;47.454;18.966;2023-03-01T14:20:27;100782.09;;;20.85;28.93
77572;BME280;67214;47.454;18.966;2023-03-01T14:23:01;100769.00;;;21.13;29.09
77572;BME280;67214;47.454;18.966;2023-03-01T14:25:36;100772.52;;;21.90;27.86
77572;BME280;67214;47.454;18.966;2023-03-01T14:30:47;100760.05;;;22.12;27.52
77572;BME280;67214;47.454;18.966;2023-03-01T14:33:34;100758.06;;;21.60;27.70
77572;BME280;67214;47.454;18.966;2023-03-01T14:36:09;100752.09;;;22.58;27.25
77572;BME280;67214;47.454;18.966;2023-03-01T14:38:41;100748.98;;;22.69;26.42